Time;durP1;ratioP1;P1;durP2;ratioP2;P2;SDS_P1;SDS_P2;PMS_P1;PMS_P2;Temp;Humidity;BMP_temperature;BMP_pressure;BME280_temperature;BME280_humidity;BME280_pressure;Samples;Min_cycle;Max_cycle;Signal;HPM_P1;HPM_P2
2022/07/08 00:00:13;;;;;;;1.90;1.40;;;15.40;99.90;;;;;;5063240;28;20896;-73
2022/07/08 00:03:02;;;;;;;0.40;0.40;;;15.40;99.90;;;;;;5063475;28;20982;-75
2022/07/08 00:05:50;;;;;;;1.77;1.07;;;15.50;99.90;;;;;;5061325;28;21038;-74
2022/07/08 00:08:38;;;;;;;1.57;0.73;;;15.30;99.90;;;;;;5062453;28;20467;-74
2022/07/08 00:11:26;;;;;;;0.90;0.63;;;15.40;99.90;;;;;;5061973;28;20615;-72
2022/07/08 00:14:16;;;;;;;0.60;0.60;;;15.30;99.90;;;;;;5062727;28;20319;-74
2022/07/08 00:17:04;;;;;;;0.50;0.50;;;15.30;99.90;;;;;;5062694;28;20502;-74
2022/07/08 00:19:52;;;;;;;1.07;1.07;;;15.20;99.90;;;;;;5062016;28;20526;-74
2022/07/08 00:22:40;;;;;;;0.60;0.60;;;15.20;99.90;;;;;;5062138;28;20666;-73
2022/07/08 00:25:29;;;;;;;0.67;0.60;;;15.10;99.90;;;;;;5062199;28;20271;-75
2022/07/08 00:28:17;;;;;;;0.50;0.50;;;15.30;99.90;;;;;;5062818;28;20720;-75
2022/07/08 00:31:06;;;;;;;0.60;0.60;;;15.20;99.90;;;;;;5060810;28;20424;-75
2022/07/08 00:33:54;;;;;;;0.50;0.50;;;15.10;99.90;;;;;;5069037;28;20427;-74
2022/07/08 00:36:43;;;;;;;1.10;0.67;;;15.00;99.90;;;;;;5061837;28;20428;-75
2022/07/08 00:39:31;;;;;;;2.70;2.50;;;14.90;99.90;;;;;;5061175;28;20459;-74
2022/07/08 00:42:19;;;;;;;0.50;0.50;;;15.00;99.90;;;;;;5061494;28;20971;-73
2022/07/08 00:45:08;;;;;;;2.10;1.90;;;14.90;99.90;;;;;;5062158;28;20448;-75
2022/07/08 00:47:57;;;;;;;0.60;0.60;;;14.90;99.90;;;;;;5061806;28;20553;-74
2022/07/08 00:50:45;;;;;;;3.40;1.23;;;14.90;99.90;;;;;;5061666;28;20440;-73
2022/07/08 00:53:34;;;;;;;0.53;0.50;;;15.00;99.90;;;;;;5061534;28;20420;-74
2022/07/08 00:56:23;;;;;;;1.90;1.07;;;15.00;99.90;;;;;;5061092;28;20437;-77
2022/07/08 00:59:13;;;;;;;0.50;0.50;;;15.00;99.90;;;;;;5060562;28;20444;-76
2022/07/08 01:02:01;;;;;;;0.60;0.60;;;15.00;99.90;;;;;;5062598;28;20432;-75
2022/07/08 01:04:51;;;;;;;0.50;0.50;;;15.10;99.90;;;;;;5061627;28;20486;-77
2022/07/08 01:07:41;;;;;;;3.57;0.93;;;15.00;99.90;;;;;;5062142;28;20475;-74
2022/07/08 01:10:30;;;;;;;0.77;0.77;;;15.10;99.90;;;;;;5059654;28;20990;-75
2022/07/08 01:13:19;;;;;;;5.20;1.37;;;15.10;99.90;;;;;;5060692;28;20936;-74
2022/07/08 01:16:08;;;;;;;0.50;0.50;;;15.10;99.90;;;;;;5060817;28;20424;-76
2022/07/08 01:18:56;;;;;;;1.07;1.07;;;15.10;99.90;;;;;;5060442;28;20486;-74
2022/07/08 01:21:46;;;;;;;0.90;0.70;;;15.10;99.90;;;;;;5061884;28;20482;-74
2022/07/08 01:24:34;;;;;;;0.60;0.60;;;15.00;99.90;;;;;;5061335;28;20796;-75
2022/07/08 01:27:22;;;;;;;0.90;0.90;;;15.10;99.90;;;;;;5060929;28;20463;-75
2022/07/08 01:30:11;;;;;;;7.17;2.00;;;15.20;99.90;;;;;;5063163;28;20446;-76
2022/07/08 01:32:59;;;;;;;0.60;0.50;;;15.10;99.90;;;;;;5061831;28;20420;-75
2022/07/08 01:35:47;;;;;;;2.27;1.53;;;15.10;99.90;;;;;;5061130;28;20420;-75
2022/07/08 01:38:37;;;;;;;0.90;0.90;;;15.20;99.90;;;;;;5060727;28;20465;-75
2022/07/08 01:41:25;;;;;;;0.50;0.50;;;15.20;99.90;;;;;;5061082;28;20428;-75
2022/07/08 01:44:13;;;;;;;0.50;0.50;;;15.20;99.90;;;;;;5059425;28;20428;-73
2022/07/08 01:47:01;;;;;;;0.60;0.60;;;15.20;99.90;;;;;;5060854;28;20424;-75
2022/07/08 01:49:49;;;;;;;0.60;0.60;;;15.20;99.90;;;;;;5056839;28;20216;-73
2022/07/08 01:52:38;;;;;;;0.50;0.50;;;15.30;99.90;;;;;;5055418;28;20477;-76
2022/07/08 01:55:27;;;;;;;0.57;0.57;;;15.30;99.90;;;;;;5058579;28;20478;-74
2022/07/08 01:58:16;;;;;;;0.70;0.70;;;15.30;99.90;;;;;;5058414;28;20529;-74
2022/07/08 02:01:04;;;;;;;0.40;0.40;;;15.30;99.90;;;;;;5058526;28;20446;-73
2022/07/08 02:03:52;;;;;;;0.57;0.57;;;15.30;99.90;;;;;;5058127;28;20441;-74
2022/07/08 02:06:40;;;;;;;1.20;1.10;;;15.40;99.90;;;;;;5058821;28;20482;-74
2022/07/08 02:09:29;;;;;;;0.50;0.50;;;15.30;99.90;;;;;;5057836;28;20473;-77
2022/07/08 02:12:20;;;;;;;2.53;2.00;;;15.50;99.90;;;;;;5060407;28;20440;-75
2022/07/08 02:15:09;;;;;;;0.50;0.50;;;15.30;99.90;;;;;;5059681;28;20425;-73
2022/07/08 02:17:57;;;;;;;0.50;0.50;;;15.40;99.90;;;;;;5059387;28;20271;-74
2022/07/08 02:20:45;;;;;;;0.60;0.60;;;15.30;99.90;;;;;;5058568;28;20431;-75
2022/07/08 02:23:34;;;;;;;0.40;0.40;;;15.30;99.90;;;;;;5057548;28;20935;-73
2022/07/08 02:26:22;;;;;;;0.40;0.40;;;15.50;99.90;;;;;;5059531;28;20951;-79
2022/07/08 02:29:11;;;;;;;0.83;0.83;;;15.40;99.90;;;;;;5058607;28;20475;-74
2022/07/08 02:32:00;;;;;;;0.50;0.50;;;15.30;99.90;;;;;;5059511;28;20431;-75
2022/07/08 02:34:49;;;;;;;1.43;0.97;;;15.40;99.90;;;;;;5059036;28;20425;-74
2022/07/08 02:37:37;;;;;;;0.50;0.50;;;15.40;99.90;;;;;;5059738;28;20451;-73
2022/07/08 02:40:25;;;;;;;0.60;0.60;;;15.40;99.90;;;;;;5066708;28;20432;-72
2022/07/08 02:43:13;;;;;;;0.50;0.50;;;15.40;99.90;;;;;;5059043;28;20458;-71
2022/07/08 02:46:02;;;;;;;3.77;1.03;;;15.40;99.90;;;;;;5062161;28;20912;-73
2022/07/08 02:48:51;;;;;;;0.70;0.70;;;15.40;99.90;;;;;;5063266;28;21016;-75
2022/07/08 02:51:39;;;;;;;0.50;0.50;;;15.20;99.90;;;;;;5062935;28;20454;-72
2022/07/08 02:54:27;;;;;;;2.50;1.27;;;15.30;99.90;;;;;;5061831;28;20428;-73
2022/07/08 02:57:15;;;;;;;0.40;0.40;;;15.20;99.90;;;;;;5059857;28;20201;-75
2022/07/08 03:00:05;;;;;;;0.50;0.50;;;15.30;99.90;;;;;;5059662;28;20482;-73
2022/07/08 03:02:54;;;;;;;0.60;0.60;;;15.20;99.90;;;;;;5061081;28;20424;-76
2022/07/08 03:05:42;;;;;;;0.70;0.70;;;15.20;99.90;;;;;;5058039;28;20428;-75
2022/07/08 03:08:30;;;;;;;0.40;0.40;;;15.20;99.90;;;;;;5059490;28;20275;-76
2022/07/08 03:11:20;;;;;;;0.50;0.50;;;15.00;99.90;;;;;;5058366;28;20451;-76
2022/07/08 03:14:08;;;;;;;0.40;0.40;;;15.00;99.90;;;;;;5060618;28;20435;-74
2022/07/08 03:16:56;;;;;;;0.43;0.43;;;15.00;99.90;;;;;;5059492;28;20428;-75
2022/07/08 03:19:45;;;;;;;0.70;0.60;;;15.10;99.90;;;;;;5058559;28;20209;-75
2022/07/08 03:22:34;;;;;;;3.97;1.73;;;15.00;99.90;;;;;;5059617;28;20444;-75
2022/07/08 03:25:22;;;;;;;2.07;1.50;;;15.00;99.90;;;;;;5055539;28;20436;-75
2022/07/08 03:28:10;;;;;;;0.50;0.50;;;14.90;99.90;;;;;;5062237;28;20494;-76
2022/07/08 03:30:58;;;;;;;20.57;2.63;;;15.00;99.90;;;;;;5063163;28;20428;-73
2022/07/08 03:33:46;;;;;;;1.23;0.90;;;14.90;99.90;;;;;;5064404;28;20439;-74
2022/07/08 03:36:36;;;;;;;0.80;0.80;;;15.00;99.90;;;;;;5063637;28;20452;-75
2022/07/08 03:39:24;;;;;;;1.07;1.07;;;15.00;99.90;;;;;;5062354;28;20493;-75
2022/07/08 03:42:11;;;;;;;0.50;0.50;;;15.00;99.90;;;;;;5061236;28;20470;-75
2022/07/08 03:44:59;;;;;;;0.80;0.80;;;15.00;99.90;;;;;;5059696;28;20435;-74
2022/07/08 03:47:47;;;;;;;0.60;0.60;;;15.10;99.90;;;;;;5063725;28;20444;-75
2022/07/08 03:50:35;;;;;;;0.60;0.60;;;15.00;99.90;;;;;;5060003;28;20458;-75
2022/07/08 03:53:24;;;;;;;0.50;0.50;;;15.10;99.90;;;;;;5052038;28;20478;-76
2022/07/08 03:56:13;;;;;;;0.40;0.40;;;15.10;99.90;;;;;;5042208;28;20429;-73
2022/07/08 03:59:01;;;;;;;0.50;0.50;;;15.10;99.90;;;;;;5041511;28;20448;-73
2022/07/08 04:01:49;;;;;;;0.40;0.40;;;15.10;99.90;;;;;;5043327;28;20984;-75
2022/07/08 04:04:37;;;;;;;0.60;0.53;;;15.10;99.90;;;;;;5041840;28;20427;-74
2022/07/08 04:07:25;;;;;;;0.40;0.40;;;15.10;99.90;;;;;;5042182;28;20455;-73
2022/07/08 04:10:15;;;;;;;0.90;0.73;;;15.20;99.90;;;;;;5041073;28;20214;-74
2022/07/08 04:13:03;;;;;;;0.67;0.67;;;15.10;99.90;;;;;;5040963;28;20421;-76
2022/07/08 04:15:51;;;;;;;1.00;0.60;;;15.10;99.90;;;;;;5040819;28;20937;-77
2022/07/08 04:18:41;;;;;;;2.50;1.70;;;15.10;99.90;;;;;;5041944;28;20436;-72
2022/07/08 04:21:29;;;;;;;0.40;0.40;;;15.00;99.90;;;;;;5056589;28;20439;-70
2022/07/08 04:24:18;;;;;;;0.43;0.43;;;15.00;99.90;;;;;;5056047;28;20435;-70
2022/07/08 04:27:08;;;;;;;0.43;0.43;;;15.00;99.90;;;;;;5056061;28;20513;-71
2022/07/08 04:29:56;;;;;;;2.57;1.17;;;15.10;99.90;;;;;;5054982;28;20213;-75
2022/07/08 04:32:44;;;;;;;0.87;0.80;;;15.00;99.90;;;;;;5056533;28;20449;-72
2022/07/08 04:35:32;;;;;;;0.40;0.40;;;15.00;99.90;;;;;;5056146;28;20416;-72
2022/07/08 04:38:20;;;;;;;0.50;0.50;;;15.10;99.90;;;;;;5055619;28;20456;-74
2022/07/08 04:41:08;;;;;;;0.70;0.70;;;15.10;99.90;;;;;;5054882;28;20233;-71
2022/07/08 04:43:58;;;;;;;0.70;0.70;;;15.10;99.90;;;;;;5056069;28;20193;-71
2022/07/08 04:46:46;;;;;;;1.43;1.00;;;15.30;99.90;;;;;;5064007;28;20272;-71
2022/07/08 04:49:34;;;;;;;2.23;1.10;;;15.10;99.90;;;;;;5059573;28;20556;-71
2022/07/08 04:52:22;;;;;;;0.40;0.40;;;15.10;99.90;;;;;;5054857;28;20213;-71
2022/07/08 04:55:27;;;;;;;0.50;0.50;;;15.00;99.90;;;;;;5055492;28;20464;-71
2022/07/08 04:58:16;;;;;;;0.80;0.80;;;15.00;99.90;;;;;;5055413;28;20458;-71
2022/07/08 05:01:05;;;;;;;0.60;0.60;;;15.00;99.90;;;;;;5049161;28;20478;-70
2022/07/08 05:03:54;;;;;;;0.50;0.50;;;15.10;99.90;;;;;;5055865;28;20212;-71
2022/07/08 05:06:42;;;;;;;0.50;0.50;;;15.10;99.90;;;;;;5055433;28;20435;-70
2022/07/08 05:09:30;;;;;;;0.47;0.47;;;15.20;99.90;;;;;;5055428;28;20996;-70
2022/07/08 05:12:19;;;;;;;2.87;1.17;;;15.10;99.90;;;;;;5054828;28;20806;-71
2022/07/08 05:15:08;;;;;;;0.43;0.43;;;15.10;99.90;;;;;;5054265;28;20423;-74
2022/07/08 05:17:57;;;;;;;0.60;0.50;;;15.20;99.90;;;;;;5055202;28;20460;-70
2022/07/08 05:20:46;;;;;;;0.63;0.63;;;;;;;;;;5054847;28;20694;-71
2022/07/08 05:23:34;;;;;;;0.50;0.50;;;15.20;99.90;;;;;;5055810;28;20432;-71
2022/07/08 05:26:22;;;;;;;0.40;0.40;;;15.20;99.90;;;;;;5054932;28;20455;-71
2022/07/08 05:29:13;;;;;;;8.67;2.60;;;15.20;99.90;;;;;;5054632;28;20228;-71
2022/07/08 05:32:01;;;;;;;0.50;0.50;;;15.30;99.90;;;;;;5054272;28;20431;-71
2022/07/08 05:34:51;;;;;;;1.83;0.50;;;15.40;99.90;;;;;;5054344;28;20424;-72
2022/07/08 05:37:39;;;;;;;4.10;0.90;;;15.40;99.90;;;;;;5053921;28;20444;-71
2022/07/08 05:40:28;;;;;;;0.90;0.90;;;15.40;99.90;;;;;;5053446;28;20428;-70
2022/07/08 05:43:16;;;;;;;0.83;0.83;;;15.50;99.90;;;;;;5053502;28;20825;-72
2022/07/08 05:46:04;;;;;;;2.20;0.73;;;15.40;99.90;;;;;;5053318;28;20197;-70
2022/07/08 05:48:53;;;;;;;2.30;0.80;;;15.30;99.90;;;;;;5053974;28;20225;-71
2022/07/08 05:51:42;;;;;;;0.67;0.67;;;15.30;99.90;;;;;;5054105;28;20428;-72
2022/07/08 05:54:30;;;;;;;0.50;0.50;;;15.30;99.90;;;;;;5054772;28;20466;-71
2022/07/08 05:57:19;;;;;;;8.53;1.30;;;15.30;99.90;;;;;;5054130;28;20970;-71
2022/07/08 06:00:08;;;;;;;2.20;0.60;;;15.20;99.90;;;;;;5053964;28;20531;-71
2022/07/08 06:02:56;;;;;;;1.80;0.70;;;15.20;99.90;;;;;;5047472;28;20529;-71
2022/07/08 06:05:45;;;;;;;0.57;0.57;;;15.30;99.90;;;;;;5034042;28;20471;-75
2022/07/08 06:08:34;;;;;;;0.43;0.43;;;15.30;99.90;;;;;;5047767;28;20444;-72
2022/07/08 06:11:23;;;;;;;1.27;1.17;;;15.40;99.90;;;;;;5052938;28;20483;-71
2022/07/08 06:14:11;;;;;;;0.77;0.77;;;15.40;99.90;;;;;;5047150;28;20924;-72
2022/07/08 06:17:00;;;;;;;0.50;0.50;;;15.40;99.90;;;;;;5052792;28;20947;-70
2022/07/08 06:19:48;;;;;;;0.90;0.90;;;15.60;99.90;;;;;;5053388;28;20413;-71
2022/07/08 06:22:36;;;;;;;5.03;0.97;;;15.70;99.90;;;;;;5047385;28;20861;-70
2022/07/08 06:25:25;;;;;;;0.50;0.50;;;15.80;99.90;;;;;;5052111;28;20944;-70
2022/07/08 06:28:14;;;;;;;0.70;0.70;;;15.90;99.90;;;;;;5054130;28;20577;-73
2022/07/08 06:31:02;;;;;;;1.93;0.80;;;15.80;99.90;;;;;;5052598;28;20495;-71
2022/07/08 06:33:56;;;;;;;0.73;0.50;;;15.70;99.90;;;;;;5064874;28;20438;-72
2022/07/08 06:36:44;;;;;;;0.40;0.40;;;15.70;99.90;;;;;;5073250;28;20431;-71
2022/07/08 06:39:32;;;;;;;3.40;1.80;;;15.80;99.90;;;;;;5072562;28;20864;-72
2022/07/08 06:42:22;;;;;;;0.60;0.60;;;15.80;99.90;;;;;;5071640;28;20431;-72
2022/07/08 06:45:10;;;;;;;0.83;0.70;;;15.60;99.90;;;;;;5071942;28;20578;-72
2022/07/08 06:47:58;;;;;;;1.87;0.60;;;15.60;99.90;;;;;;5054591;28;20444;-72
2022/07/08 06:50:47;;;;;;;0.40;0.40;;;15.50;99.90;;;;;;5052766;28;20503;-71
2022/07/08 06:56:37;;;;;;;1.00;0.80;;;15.60;99.90;;;;;;5055924;28;20431;-71
2022/07/08 06:59:26;;;;;;;0.50;0.50;;;15.70;99.90;;;;;;5053122;28;20444;-72
2022/07/08 07:02:35;;;;;;;1.03;0.57;;;15.70;99.90;;;;;;5057248;28;20428;-70
2022/07/08 07:05:23;;;;;;;4.20;3.20;;;16.00;99.90;;;;;;5057775;28;20424;-72
2022/07/08 07:08:11;;;;;;;0.50;0.50;;;16.20;99.90;;;;;;5058135;28;20221;-71
2022/07/08 07:10:59;;;;;;;0.50;0.50;;;16.60;99.90;;;;;;5061949;28;20464;-71
2022/07/08 07:13:49;;;;;;;1.27;1.17;;;16.80;99.90;;;;;;5051675;28;20933;-77
2022/07/08 07:16:39;;;;;;;0.47;0.47;;;17.10;99.90;;;;;;5043831;28;20519;-78
2022/07/08 07:19:28;;;;;;;3.17;0.50;;;17.40;99.90;;;;;;5052576;28;20705;-73
2022/07/08 07:22:17;;;;;;;0.65;0.65;;;17.70;99.90;;;;;;5052850;28;20608;-72
2022/07/08 07:25:06;;;;;;;3.08;1.38;;;17.90;99.90;;;;;;5052290;28;20752;-76
2022/07/08 07:28:00;;;;;;;0.50;0.50;;;17.90;99.90;;;;;;5054360;28;20223;-75
2022/07/08 07:30:48;;;;;;;0.50;0.50;;;18.00;99.90;;;;;;5052578;28;20213;-73
2022/07/08 07:33:37;;;;;;;0.60;0.57;;;18.00;99.90;;;;;;5052274;28;20768;-74
2022/07/08 07:36:26;;;;;;;2.53;0.68;;;17.70;99.90;;;;;;5053288;28;20625;-74
2022/07/08 07:39:14;;;;;;;1.25;1.05;;;17.70;99.90;;;;;;5053742;28;20248;-71
2022/07/08 07:42:03;;;;;;;0.50;0.47;;;17.50;99.90;;;;;;5055793;28;20205;-72
2022/07/08 07:44:51;;;;;;;0.98;0.93;;;17.40;99.90;;;;;;5054544;28;20631;-71
2022/07/08 07:47:39;;;;;;;0.68;0.50;;;17.40;99.90;;;;;;5055495;28;20226;-71
2022/07/08 07:50:29;;;;;;;1.17;0.68;;;17.20;99.90;;;;;;5054757;28;20604;-72
2022/07/08 07:53:17;;;;;;;1.33;0.68;;;17.50;99.90;;;;;;5053249;28;20205;-76
2022/07/08 07:56:06;;;;;;;0.50;0.50;;;17.60;99.90;;;;;;5054167;28;20201;-74
2022/07/08 07:58:54;;;;;;;1.88;0.70;;;17.90;99.90;;;;;;5054754;28;20364;-71
2022/07/08 08:01:42;;;;;;;0.40;0.40;;;18.00;99.90;;;;;;5054417;28;20232;-73
2022/07/08 08:04:30;;;;;;;2.80;0.60;;;18.10;99.90;;;;;;5053791;28;20205;-77
2022/07/08 08:07:20;;;;;;;0.60;0.50;;;18.30;99.90;;;;;;5053643;28;20205;-76
2022/07/08 08:10:09;;;;;;;0.50;0.50;;;18.30;99.90;;;;;;5036109;28;20206;-74
2022/07/08 08:12:57;;;;;;;0.73;0.73;;;18.30;99.90;;;;;;5032052;28;20202;-74
2022/07/08 08:15:46;;;;;;;0.40;0.40;;;18.10;99.90;;;;;;5034741;28;20198;-73
2022/07/08 08:18:34;;;;;;;0.60;0.60;;;18.00;99.90;;;;;;5034738;28;20261;-73
2022/07/08 08:21:23;;;;;;;0.50;0.50;;;18.10;99.90;;;;;;5043583;28;20201;-74
2022/07/08 08:24:12;;;;;;;0.40;0.40;;;17.90;99.90;;;;;;5053427;28;20288;-72
2022/07/08 08:27:00;;;;;;;2.78;0.70;;;17.90;99.90;;;;;;5054443;28;20678;-72
2022/07/08 08:29:48;;;;;;;0.60;0.60;;;17.80;99.90;;;;;;5053576;28;20212;-72
2022/07/08 08:32:36;;;;;;;2.08;0.70;;;17.60;99.90;;;;;;5054725;28;20233;-72
2022/07/08 08:35:25;;;;;;;0.60;0.60;;;17.40;99.90;;;;;;5055428;28;20623;-71
2022/07/08 08:38:13;;;;;;;0.40;0.40;;;17.30;99.90;;;;;;5053066;28;20308;-73
2022/07/08 08:41:02;;;;;;;0.40;0.40;;;17.40;99.90;;;;;;5052580;28;20283;-71
2022/07/08 08:43:51;;;;;;;0.50;0.50;;;17.30;99.90;;;;;;5054490;28;20206;-72
2022/07/08 08:46:42;;;;;;;0.40;0.40;;;17.30;99.90;;;;;;5053992;28;20202;-73
2022/07/08 08:49:35;;;;;;;0.60;0.60;;;17.40;99.90;;;;;;5052547;28;20213;-73
2022/07/08 08:52:24;;;;;;;3.05;0.88;;;17.40;99.90;;;;;;5054119;28;20221;-71
2022/07/08 08:55:14;;;;;;;1.38;0.63;;;17.30;99.90;;;;;;5055312;28;20237;-71
2022/07/08 08:58:05;;;;;;;0.57;0.50;;;17.10;99.90;;;;;;5054880;28;20632;-72
2022/07/08 09:00:53;;;;;;;0.50;0.50;;;17.20;99.90;;;;;;5058161;28;20214;-71
2022/07/08 09:03:43;;;;;;;1.35;1.15;;;17.00;99.90;;;;;;5055986;28;20299;-71
2022/07/08 09:06:32;;;;;;;0.50;0.50;;;17.00;99.90;;;;;;5055105;28;20197;-71
2022/07/08 09:09:21;;;;;;;0.50;0.50;;;16.90;99.90;;;;;;5044429;28;20213;-71
2022/07/08 09:12:19;;;;;;;0.50;0.50;;;16.90;99.90;;;;;;5032822;28;20293;-73
2022/07/08 09:15:10;;;;;;;0.50;0.50;;;17.10;99.90;;;;;;5033194;28;20202;-77
2022/07/08 09:17:58;;;;;;;0.60;0.60;;;17.30;99.90;;;;;;5031582;28;20234;-72
2022/07/08 09:20:48;;;;;;;0.60;0.60;;;17.40;99.90;;;;;;5033486;28;20205;-71
2022/07/08 09:23:37;;;;;;;1.63;0.75;;;17.40;99.90;;;;;;5033470;28;20678;-72
2022/07/08 09:26:28;;;;;;;0.50;0.50;;;17.40;99.90;;;;;;5031922;28;20496;-71
2022/07/08 09:29:17;;;;;;;0.50;0.50;;;17.60;99.90;;;;;;5032973;28;20226;-75
2022/07/08 09:32:15;;;;;;;4.40;0.93;;;17.70;99.90;;;;;;5032024;28;20229;-70
2022/07/08 09:35:12;;;;;;;1.00;0.77;;;17.70;99.90;;;;;;5032347;28;20286;-71
2022/07/08 09:38:05;;;;;;;0.50;0.50;;;17.60;99.90;;;;;;5034340;28;20222;-71
2022/07/08 09:40:58;;;;;;;0.70;0.70;;;17.50;99.90;;;;;;5033794;28;20198;-71
2022/07/08 09:43:49;;;;;;;0.40;0.40;;;17.50;99.90;;;;;;5033043;28;20202;-74
2022/07/08 09:46:38;;;;;;;0.70;0.70;;;17.60;99.90;;;;;;5032319;28;20199;-74
2022/07/08 09:49:29;;;;;;;0.80;0.60;;;18.10;99.90;;;;;;5032360;28;20232;-80
2022/07/08 09:52:21;;;;;;;0.60;0.60;;;18.50;99.90;;;;;;5032599;28;20650;-73
2022/07/08 09:55:10;;;;;;;0.40;0.40;;;18.60;99.90;;;;;;5031242;28;20249;-71
2022/07/08 09:57:59;;;;;;;0.50;0.50;;;18.90;99.90;;;;;;5031375;28;20249;-75
2022/07/08 10:00:49;;;;;;;0.45;0.45;;;19.20;99.90;;;;;;5032229;28;20623;-74
2022/07/08 10:03:37;;;;;;;0.45;0.45;;;19.20;99.90;;;;;;5031198;28;20201;-76
2022/07/08 10:06:27;;;;;;;0.80;0.70;;;19.00;99.90;;;;;;5032657;28;20198;-73
2022/07/08 10:09:15;;;;;;;0.70;0.70;;;18.60;99.90;;;;;;5041341;28;20263;-71
2022/07/08 10:12:05;;;;;;;0.50;0.50;;;18.70;99.90;;;;;;5050689;28;20243;-72
2022/07/08 10:14:55;;;;;;;0.50;0.50;;;18.80;99.90;;;;;;5050051;28;20204;-75
2022/07/08 10:17:45;;;;;;;0.77;0.60;;;19.10;99.90;;;;;;5049884;28;20236;-73
2022/07/08 10:20:36;;;;;;;0.60;0.60;;;19.40;99.90;;;;;;5050217;28;20281;-72
2022/07/08 10:23:29;;;;;;;1.88;1.77;;;19.50;99.90;;;;;;5049901;28;20197;-73
2022/07/08 10:26:21;;;;;;;3.80;0.88;;;19.40;99.90;;;;;;5051767;28;20323;-75
2022/07/08 10:29:11;;;;;;;1.08;0.80;;;19.30;99.90;;;;;;5052519;28;20225;-72
2022/07/08 10:32:01;;;;;;;1.40;0.85;;;19.60;99.90;;;;;;5051289;28;20228;-71
2022/07/08 10:35:08;;;;;;;0.45;0.45;;;20.00;99.90;;;;;;5051423;28;20211;-72
2022/07/08 10:37:58;;;;;;;0.50;0.50;;;20.20;99.90;;;;;;5056050;28;20224;-71
2022/07/08 10:40:52;;;;;;;0.63;0.63;;;20.30;99.90;;;;;;5054936;28;20200;-73
2022/07/08 10:43:52;;;;;;;0.60;0.60;;;20.60;99.90;;;;;;5056238;28;20204;-70
2022/07/08 10:46:52;;;;;;;0.40;0.40;;;20.90;99.90;;;;;;5055412;28;20201;-73
2022/07/08 10:49:41;;;;;;;0.40;0.40;;;21.00;99.90;;;;;;5055830;28;20197;-72
2022/07/08 10:52:33;;;;;;;0.40;0.40;;;21.10;99.90;;;;;;5055327;28;20221;-73
2022/07/08 10:55:21;;;;;;;0.65;0.47;;;21.00;99.90;;;;;;5054808;28;20747;-70
2022/07/08 10:58:10;;;;;;;0.40;0.40;;;20.90;99.90;;;;;;5055745;28;20228;-72
2022/07/08 11:01:24;;;;;;;0.77;0.77;;;20.90;99.90;;;;;;5053975;28;20587;-73
2022/07/08 11:04:27;;;;;;;0.40;0.40;;;21.00;99.90;;;;;;5055288;28;20189;-71
2022/07/08 11:07:27;;;;;;;0.50;0.50;;;20.80;99.90;;;;;;5056594;28;20205;-75
2022/07/08 11:10:15;;;;;;;0.40;0.40;;;20.80;99.90;;;;;;5037492;28;20973;-72
2022/07/08 11:13:03;;;;;;;0.93;0.60;;;20.90;99.90;;;;;;5035114;28;20226;-70
2022/07/08 11:15:53;;;;;;;0.40;0.40;;;21.00;99.90;;;;;;5035799;28;20536;-73
2022/07/08 11:18:46;;;;;;;2.67;1.10;;;20.90;99.90;;;;;;5033535;28;20651;-71
2022/07/08 11:21:34;;;;;;;0.40;0.40;;;21.20;99.90;;;;;;5034378;28;20198;-71
2022/07/08 11:24:23;;;;;;;0.40;0.40;;;21.00;99.90;;;;;;5036012;28;20198;-72
2022/07/08 11:27:11;;;;;;;0.98;0.98;;;20.80;99.90;;;;;;5035313;28;20202;-71
2022/07/08 11:29:59;;;;;;;0.50;0.50;;;21.00;99.90;;;;;;5035577;28;20206;-71
2022/07/08 11:32:50;;;;;;;1.00;1.00;;;21.10;99.90;;;;;;5033961;28;20699;-72
2022/07/08 11:35:39;;;;;;;0.50;0.50;;;21.40;99.90;;;;;;5035068;28;20198;-74
2022/07/08 11:38:37;;;;;;;0.50;0.50;;;21.50;99.90;;;;;;5033890;28;20234;-73
2022/07/08 11:41:25;;;;;;;0.50;0.50;;;21.80;99.90;;;;;;5034931;28;20205;-71
2022/07/08 11:44:13;;;;;;;0.60;0.60;;;21.80;99.90;;;;;;5034543;28;20194;-73
2022/07/08 11:47:01;;;;;;;1.83;0.60;;;21.70;99.90;;;;;;5035235;28;20198;-71
2022/07/08 11:49:51;;;;;;;0.40;0.40;;;21.90;99.90;;;;;;5034016;28;20457;-72
2022/07/08 11:52:40;;;;;;;0.50;0.50;;;22.00;99.90;;;;;;5034802;28;20616;-75
2022/07/08 11:55:28;;;;;;;0.50;0.50;;;22.00;99.90;;;;;;5035533;28;20629;-72
2022/07/08 11:58:22;;;;;;;0.80;0.80;;;21.80;99.90;;;;;;5034719;28;20218;-72
2022/07/08 12:01:10;;;;;;;0.40;0.40;;;21.70;99.90;;;;;;5034902;28;20206;-73
2022/07/08 12:03:58;;;;;;;0.50;0.50;;;21.70;99.90;;;;;;5034593;28;20202;-71
2022/07/08 12:06:49;;;;;;;0.40;0.40;;;21.60;99.90;;;;;;5035945;28;20228;-71
2022/07/08 12:09:37;;;;;;;0.57;0.55;;;21.60;99.90;;;;;;5045439;28;20208;-71
2022/07/08 12:12:26;;;;;;;0.60;0.45;;;21.80;99.90;;;;;;5051926;28;20229;-71
2022/07/08 12:15:16;;;;;;;0.40;0.40;;;21.90;99.90;;;;;;5052844;28;20224;-71
2022/07/08 12:18:05;;;;;;;0.40;0.40;;;22.10;99.90;;;;;;5051786;28;20241;-74
2022/07/08 12:20:54;;;;;;;0.40;0.40;;;22.00;99.90;;;;;;5052259;28;20201;-73
2022/07/08 12:23:45;;;;;;;2.13;0.98;;;21.60;99.90;;;;;;5052661;28;20221;-72
2022/07/08 12:26:34;;;;;;;0.45;0.45;;;21.30;99.90;;;;;;5052137;28;20702;-71
2022/07/08 12:29:22;;;;;;;0.50;0.50;;;21.20;99.90;;;;;;5052036;28;20228;-73
2022/07/08 12:32:11;;;;;;;0.65;0.65;;;21.30;99.90;;;;;;5052659;28;20201;-72
2022/07/08 12:35:03;;;;;;;0.60;0.60;;;21.50;99.90;;;;;;5051743;28;20197;-72
2022/07/08 12:38:03;;;;;;;0.50;0.50;;;21.50;99.90;;;;;;5055790;28;20222;-72
2022/07/08 12:40:54;;;;;;;0.50;0.50;;;21.30;99.90;;;;;;5051781;28;20201;-72
2022/07/08 12:43:42;;;;;;;0.40;0.40;;;21.10;99.90;;;;;;5052519;28;20674;-73
2022/07/08 12:46:30;;;;;;;0.40;0.40;;;21.20;99.90;;;;;;5051885;28;20208;-72
2022/07/08 12:49:23;;;;;;;0.50;0.50;;;21.10;99.90;;;;;;5051619;28;20213;-71
2022/07/08 12:52:11;;;;;;;3.97;1.25;;;21.10;99.90;;;;;;5051694;28;20259;-71
2022/07/08 12:54:59;;;;;;;0.40;0.40;;;21.00;99.90;;;;;;5052786;28;20208;-73
2022/07/08 12:57:49;;;;;;;0.82;0.60;;;20.90;99.90;;;;;;5052433;28;20262;-71
2022/07/08 13:00:37;;;;;;;0.88;0.88;;;20.90;99.90;;;;;;5051178;28;20744;-73
2022/07/08 13:03:25;;;;;;;0.50;0.50;;;20.80;99.90;;;;;;5051957;28;20212;-71
2022/07/08 13:06:14;;;;;;;0.40;0.40;;;20.80;99.90;;;;;;5051512;28;20193;-72
2022/07/08 13:09:04;;;;;;;1.48;1.25;;;20.80;99.90;;;;;;5050828;28;20221;-71
2022/07/08 13:11:59;;;;;;;0.70;0.70;;;20.80;99.90;;;;;;5055002;28;20258;-71
2022/07/08 13:14:48;;;;;;;0.40;0.40;;;20.60;99.90;;;;;;5058566;28;20221;-71
2022/07/08 13:17:36;;;;;;;1.00;0.82;;;20.60;99.90;;;;;;5051924;28;20724;-72
2022/07/08 13:20:24;;;;;;;0.70;0.70;;;20.70;99.90;;;;;;5052508;28;20198;-72
2022/07/08 13:23:14;;;;;;;0.60;0.60;;;20.70;99.90;;;;;;5051866;28;20205;-73
2022/07/08 13:26:03;;;;;;;0.82;0.70;;;20.70;99.90;;;;;;5052120;28;20208;-74
2022/07/08 13:28:52;;;;;;;0.40;0.40;;;20.50;99.90;;;;;;5052157;28;20286;-72
2022/07/08 13:31:41;;;;;;;0.40;0.40;;;20.50;99.90;;;;;;5052093;28;20578;-71
2022/07/08 13:34:29;;;;;;;0.45;0.45;;;20.50;99.90;;;;;;5053418;28;20220;-72
2022/07/08 13:37:17;;;;;;;1.67;1.23;;;20.40;99.90;;;;;;5051824;28;20229;-73
2022/07/08 13:40:07;;;;;;;0.50;0.50;;;20.40;99.90;;;;;;5051629;28;20654;-71
2022/07/08 13:42:55;;;;;;;3.00;1.67;;;20.30;99.90;;;;;;5052510;28;20201;-74
2022/07/08 13:45:43;;;;;;;0.40;0.40;;;20.20;99.90;;;;;;5052528;28;20254;-75
2022/07/08 13:48:33;;;;;;;2.90;2.65;;;20.00;99.90;;;;;;5052392;28;20221;-74
2022/07/08 13:51:21;;;;;;;0.50;0.50;;;20.00;99.90;;;;;;5051407;28;20301;-72
2022/07/08 13:54:09;;;;;;;0.82;0.75;;;20.10;99.90;;;;;;5053002;28;20222;-71
2022/07/08 13:56:58;;;;;;;0.73;0.73;;;20.10;99.90;;;;;;5053271;28;20201;-71
2022/07/08 13:59:46;;;;;;;2.63;0.90;;;20.10;99.90;;;;;;5050626;28;20205;-72
2022/07/08 14:02:34;;;;;;;0.60;0.60;;;20.00;99.90;;;;;;5051320;28;20255;-73
2022/07/08 14:05:24;;;;;;;1.85;0.80;;;19.90;99.90;;;;;;5052916;28;20197;-72
2022/07/08 14:08:12;;;;;;;1.05;0.93;;;19.90;99.90;;;;;;5052654;28;20217;-71
2022/07/08 14:11:20;;;;;;;1.15;0.70;;;19.80;99.90;;;;;;5051548;28;20216;-71
2022/07/08 14:14:08;;;;;;;0.50;0.50;;;19.80;99.90;;;;;;5051326;28;20733;-71
2022/07/08 14:16:56;;;;;;;0.70;0.70;;;19.90;99.90;;;;;;5051021;28;20632;-73
2022/07/08 14:19:44;;;;;;;0.40;0.40;;;20.30;99.90;;;;;;5051188;28;20201;-70
2022/07/08 14:22:34;;;;;;;0.80;0.68;;;20.50;99.90;;;;;;5053764;28;20287;-71
2022/07/08 14:25:22;;;;;;;0.50;0.50;;;20.50;99.90;;;;;;5058464;28;20204;-71
2022/07/08 14:28:11;;;;;;;0.50;0.50;;;20.20;99.90;;;;;;5068502;28;20244;-73
2022/07/08 14:30:59;;;;;;;0.60;0.60;;;19.90;99.90;;;;;;5068733;28;20254;-75
2022/07/08 14:33:47;;;;;;;1.15;0.88;;;19.80;99.90;;;;;;5067932;28;20217;-75
2022/07/08 14:36:35;;;;;;;8.07;0.80;;;19.60;99.90;;;;;;5061216;28;20205;-75
2022/07/08 14:39:25;;;;;;;0.50;0.50;;;19.50;99.90;;;;;;5069922;28;20225;-73
2022/07/08 14:42:13;;;;;;;0.93;0.57;;;19.50;99.90;;;;;;5072171;28;20235;-72
2022/07/08 14:45:01;;;;;;;0.40;0.40;;;19.90;99.90;;;;;;5074193;28;20189;-73